createdAt,value
2022-08-17T00:02:21.216Z,66.45
2022-08-17T00:04:53.188Z,66.25
2022-08-17T00:07:19.600Z,66.08
2022-08-17T00:09:46.160Z,66.46
2022-08-17T00:12:43.193Z,66.95
2022-08-17T00:14:59.967Z,66.98
2022-08-17T00:17:26.367Z,67.23
2022-08-17T00:19:52.760Z,67.39
2022-08-17T00:22:32.784Z,68.31
2022-08-17T00:25:02.069Z,67.83
2022-08-17T00:27:28.521Z,67.94
2022-08-17T00:29:55.405Z,68.03
2022-08-17T00:33:14.003Z,68.49
2022-08-17T00:35:09.505Z,69.08
2022-08-17T00:37:36.414Z,69.76
2022-08-17T00:40:03.179Z,69.38
2022-08-17T00:42:31.212Z,69.91
2022-08-17T00:44:58.288Z,69.84
2022-08-17T00:47:24.742Z,69.96
2022-08-17T00:49:51.269Z,70.05
2022-08-17T00:52:21.675Z,69.87
2022-08-17T00:54:49.160Z,69.84
2022-08-17T00:57:20.249Z,70.48
2022-08-17T01:00:01.579Z,70.35
2022-08-17T01:02:34.408Z,70.72
2022-08-17T01:05:08.520Z,70.43
2022-08-17T01:07:35.289Z,71.17
2022-08-17T01:10:06.041Z,71.00
2022-08-17T01:12:34.559Z,70.81
2022-08-17T01:15:01.130Z,71.51
2022-08-17T01:17:28.607Z,71.60
2022-08-17T01:19:55.054Z,72.06
2022-08-17T01:22:23.080Z,72.22
2022-08-17T01:24:52.297Z,72.29
2022-08-17T01:27:20.690Z,72.42
2022-08-17T01:29:50.176Z,72.83
2022-08-17T01:32:16.640Z,73.06
2022-08-17T01:34:50.119Z,73.23
2022-08-17T01:37:17.979Z,73.26
2022-08-17T01:39:47.808Z,73.02
2022-08-17T01:42:29.572Z,73.62
2022-08-17T01:44:59.005Z,73.86
2022-08-17T01:47:25.930Z,73.57
2022-08-17T01:49:52.343Z,73.80
2022-08-17T01:52:19.099Z,73.51
2022-08-17T01:54:47.365Z,73.97
2022-08-17T01:57:14.145Z,73.67
2022-08-17T01:59:40.642Z,73.72
2022-08-17T02:02:07.551Z,74.13
2022-08-17T02:04:34.658Z,74.64
2022-08-17T02:07:01.105Z,74.51
2022-08-17T02:09:29.846Z,75.03
2022-08-17T02:11:58.295Z,75.36
2022-08-17T02:14:25.367Z,74.96
2022-08-17T02:16:52.230Z,76.06
2022-08-17T02:19:18.682Z,75.78
2022-08-17T02:21:46.362Z,75.76
2022-08-17T02:24:15.470Z,76.47
2022-08-17T02:26:42.064Z,77.21
2022-08-17T02:29:08.452Z,76.88
2022-08-17T02:31:35.703Z,76.58
2022-08-17T02:34:04.500Z,76.51
2022-08-17T02:36:32.299Z,76.83
2022-08-17T02:39:00.165Z,77.30
2022-08-17T02:41:26.552Z,77.45
2022-08-17T02:43:53.606Z,77.80
2022-08-17T02:46:20.087Z,78.54
2022-08-17T02:48:46.642Z,78.47
2022-08-17T02:51:13.182Z,78.68
2022-08-17T02:53:39.584Z,78.46
2022-08-17T02:56:06.297Z,78.76
2022-08-17T02:58:34.937Z,79.09
2022-08-17T03:01:03.306Z,79.71
2022-08-17T03:03:29.847Z,79.52
2022-08-17T03:05:56.401Z,79.15
2022-08-17T03:08:23.461Z,78.86
2022-08-17T03:10:50.540Z,79.38
2022-08-17T03:13:17.448Z,79.39
2022-08-17T03:15:45.346Z,79.53
2022-08-17T03:18:19.285Z,80.16
2022-08-17T03:20:51.907Z,80.38
2022-08-17T03:23:18.772Z,80.10
2022-08-17T03:25:50.530Z,79.71
2022-08-17T03:28:20.228Z,79.41
2022-08-17T03:30:46.709Z,79.05
2022-08-17T03:33:13.172Z,79.20
2022-08-17T03:35:40.678Z,79.89
2022-08-17T03:38:07.804Z,80.44
2022-08-17T03:40:58.796Z,81.00
2022-08-17T03:43:21.762Z,80.97
2022-08-17T03:46:10.898Z,81.61
2022-08-17T03:49:11.538Z,81.38
2022-08-17T03:51:56.496Z,81.67
2022-08-17T03:54:41.344Z,81.75
2022-08-17T03:57:10.845Z,81.68
2022-08-17T03:59:37.248Z,81.89
2022-08-17T04:02:08.988Z,82.12
2022-08-17T04:04:35.868Z,81.96
2022-08-17T04:07:02.309Z,81.44
2022-08-17T04:09:28.693Z,82.54
2022-08-17T04:11:55.103Z,82.09
2022-08-17T04:14:23.778Z,82.56
2022-08-17T04:16:50.222Z,82.37
2022-08-17T04:19:16.589Z,82.59
2022-08-17T04:21:42.997Z,81.96
2022-08-17T04:24:09.373Z,81.89
2022-08-17T04:26:53.196Z,82.33
2022-08-17T04:29:21.395Z,82.93
2022-08-17T04:31:48.092Z,82.46
2022-08-17T04:34:14.531Z,83.99
2022-08-17T04:36:50.334Z,84.50
2022-08-17T04:39:17.103Z,84.44
2022-08-17T04:42:02.198Z,84.05
2022-08-17T04:44:37.559Z,83.32
2022-08-17T04:47:04.793Z,83.41
2022-08-17T04:49:32.540Z,83.41
2022-08-17T04:52:01.289Z,83.27
2022-08-17T04:54:30.902Z,83.24
2022-08-17T04:56:57.355Z,83.05
2022-08-17T04:59:23.751Z,82.79
2022-08-17T05:01:50.872Z,82.59
2022-08-17T05:04:33.910Z,82.77
2022-08-17T05:07:01.886Z,82.56
2022-08-17T05:09:29.064Z,82.41
2022-08-17T05:11:56.334Z,82.18
2022-08-17T05:14:32.469Z,81.81
2022-08-17T05:17:00.178Z,81.23
2022-08-17T05:19:27.558Z,80.47
2022-08-17T05:21:53.962Z,80.37
2022-08-17T05:24:38.335Z,79.91
2022-08-17T05:27:06.588Z,79.06
2022-08-17T05:29:33.790Z,78.49
2022-08-17T05:32:37.975Z,77.75
2022-08-17T05:35:00.304Z,73.25
2022-08-17T05:37:26.852Z,68.78
2022-08-17T05:39:54.014Z,65.75
2022-08-17T05:42:20.554Z,61.95
2022-08-17T05:44:47.072Z,59.99
2022-08-17T05:47:13.512Z,57.95
2022-08-17T05:49:39.973Z,55.68
2022-08-17T05:52:19.778Z,54.19
2022-08-17T05:54:58.853Z,52.90
2022-08-17T05:57:53.355Z,53.31
2022-08-17T08:17:22.365Z,38.00
2022-08-17T08:19:48.709Z,38.22
2022-08-17T08:22:35.425Z,37.83
2022-08-17T08:25:15.003Z,39.09
2022-08-17T08:27:50.094Z,38.27
2022-08-17T08:30:18.484Z,37.36
2022-08-17T08:32:54.141Z,36.14
2022-08-17T08:35:36.923Z,36.82
2022-08-17T08:38:23.685Z,38.02
2022-08-17T08:41:01.306Z,38.12
2022-08-17T08:43:50.846Z,36.27
2022-08-17T08:46:25.402Z,36.66
2022-08-17T08:49:12.052Z,36.23
2022-08-17T08:51:46.450Z,36.63
2022-08-17T08:54:12.764Z,36.11
2022-08-17T08:57:19.175Z,36.55
2022-08-17T08:59:42.053Z,36.22
2022-08-17T09:02:11.796Z,35.77
2022-08-17T09:05:13.999Z,35.96
2022-08-17T09:07:43.791Z,36.97
2022-08-17T09:10:25.459Z,34.75
2022-08-17T09:13:09.274Z,34.06
2022-08-17T09:15:46.613Z,33.73
2022-08-17T09:19:02.331Z,32.37
2022-08-17T09:21:13.341Z,32.43
2022-08-17T09:23:59.272Z,32.90
2022-08-17T09:26:30.424Z,32.15
2022-08-17T09:29:03.133Z,32.76
2022-08-17T09:31:35.553Z,31.97
2022-08-17T09:34:22.095Z,29.00
2022-08-17T09:37:03.343Z,28.88
2022-08-17T09:39:47.717Z,29.70
2022-08-17T09:42:24.636Z,30.50
2022-08-17T09:45:09.872Z,30.10
2022-08-17T09:47:50.465Z,31.05
2022-08-17T09:51:03.553Z,31.92
2022-08-17T09:53:10.559Z,31.02
2022-08-17T09:55:42.985Z,29.63
2022-08-17T09:58:15.430Z,30.50
2022-08-17T10:00:48.355Z,30.01
2022-08-17T10:03:34.377Z,28.67
2022-08-17T10:06:00.805Z,29.49
2022-08-17T10:08:36.970Z,28.56
2022-08-17T10:11:15.421Z,27.95
2022-08-17T10:13:53.014Z,29.21
2022-08-17T10:16:23.069Z,30.50
2022-08-17T10:18:52.437Z,28.66
2022-08-17T10:21:37.476Z,27.73
2022-08-17T10:24:25.677Z,26.86
2022-08-17T10:26:57.134Z,27.85
2022-08-17T10:29:49.051Z,27.50
2022-08-17T10:32:42.268Z,27.03
2022-08-17T10:35:25.894Z,27.71
2022-08-17T10:38:10.536Z,26.51
2022-08-17T10:40:45.380Z,25.78
2022-08-17T10:43:31.445Z,26.55
2022-08-17T10:46:10.684Z,25.88
2022-08-17T10:49:12.893Z,25.32
2022-08-17T10:51:40.184Z,24.98
2022-08-17T10:54:07.112Z,24.24
2022-08-17T10:56:47.623Z,24.65
2022-08-17T10:59:32.791Z,24.56
2022-08-17T11:02:14.719Z,25.86
2022-08-17T11:04:50.391Z,25.79
2022-08-17T11:07:25.947Z,25.89
2022-08-17T11:10:01.260Z,25.82
2022-08-17T11:12:33.746Z,25.20
2022-08-17T11:15:19.665Z,24.95
2022-08-17T11:18:01.451Z,25.95
2022-08-17T11:20:39.385Z,26.78
2022-08-17T11:23:31.880Z,27.01
2022-08-17T11:26:03.985Z,27.11
2022-08-17T11:28:35.926Z,26.75
2022-08-17T11:31:08.406Z,26.60
2022-08-17T11:33:36.735Z,26.13
2022-08-17T11:36:10.404Z,26.82
2022-08-17T11:38:51.681Z,26.11
2022-08-17T11:41:27.471Z,26.73
2022-08-17T11:44:13.146Z,27.31
2022-08-17T11:47:17.217Z,26.39
2022-08-17T11:50:02.254Z,26.31
2022-08-17T11:52:36.201Z,26.42
2022-08-17T11:55:24.078Z,26.20
2022-08-17T11:58:01.902Z,26.51
2022-08-17T12:00:49.694Z,26.69
2022-08-17T12:03:24.940Z,25.33
2022-08-17T12:06:00.234Z,25.40
2022-08-17T12:08:29.377Z,24.94
2022-08-17T12:11:04.503Z,26.03
2022-08-17T12:13:39.277Z,26.21
2022-08-17T12:16:07.174Z,26.79
2022-08-17T12:18:37.378Z,26.25
2022-08-17T12:21:03.729Z,26.49
2022-08-17T12:23:30.091Z,26.65
2022-08-17T12:26:06.237Z,27.04
2022-08-17T12:28:38.688Z,27.04
2022-08-17T12:31:12.081Z,27.53
2022-08-17T12:33:42.447Z,27.51
2022-08-17T12:36:14.800Z,27.70
2022-08-17T12:38:48.714Z,27.34
2022-08-17T12:41:28.766Z,27.30
2022-08-17T12:44:03.946Z,27.51
2022-08-17T12:46:33.529Z,27.64
2022-08-17T12:49:19.618Z,27.35
2022-08-17T12:51:46.784Z,27.21
2022-08-17T12:54:25.929Z,27.43
2022-08-17T12:56:52.368Z,27.20
2022-08-17T12:59:29.577Z,27.79
2022-08-17T13:01:57.050Z,27.00
2022-08-17T13:04:24.174Z,27.69
2022-08-17T13:06:59.994Z,27.93
2022-08-17T13:09:35.715Z,28.38
2022-08-17T13:12:07.100Z,28.52
2022-08-17T13:14:34.189Z,27.91
2022-08-17T13:17:02.181Z,27.85
2022-08-17T13:19:41.024Z,28.41
2022-08-17T13:22:10.678Z,28.21
2022-08-17T13:24:38.186Z,27.90
2022-08-17T13:27:08.254Z,28.11
2022-08-17T13:29:44.208Z,27.56
2022-08-17T13:32:14.293Z,27.99
2022-08-17T13:35:12.154Z,27.92
2022-08-17T13:37:34.333Z,27.57
2022-08-17T13:40:07.510Z,27.19
2022-08-17T13:42:52.967Z,27.06
2022-08-17T13:45:38.918Z,27.70
2022-08-17T13:48:06.370Z,27.90
2022-08-17T13:50:32.903Z,27.97
2022-08-17T13:52:59.448Z,28.01
2022-08-17T13:55:28.744Z,27.57
2022-08-17T13:57:59.564Z,27.74
2022-08-17T14:00:35.364Z,28.50
2022-08-17T14:03:02.865Z,27.83
2022-08-17T14:05:30.589Z,28.52
2022-08-17T14:07:59.078Z,26.43
2022-08-17T14:10:26.053Z,26.87
2022-08-17T14:12:52.928Z,27.11
2022-08-17T14:15:21.020Z,26.89
2022-08-17T14:17:49.143Z,27.06
2022-08-17T14:20:16.507Z,27.29
2022-08-17T14:22:45.095Z,27.12
2022-08-17T14:25:14.817Z,26.98
2022-08-17T14:27:53.229Z,26.74
2022-08-17T14:30:21.501Z,26.27
2022-08-17T14:32:49.037Z,26.31
2022-08-17T14:35:16.207Z,26.83
2022-08-17T14:37:44.740Z,26.08
2022-08-17T14:40:12.747Z,25.92
2022-08-17T14:42:40.230Z,25.11
2022-08-17T14:45:29.895Z,26.21
2022-08-17T14:47:54.807Z,25.85
2022-08-17T14:50:22.335Z,25.80
2022-08-17T14:52:48.924Z,25.59
2022-08-17T14:55:18.271Z,25.47
2022-08-17T14:57:45.569Z,25.09
2022-08-17T15:00:16.700Z,25.50
2022-08-17T15:02:45.758Z,25.00
2022-08-17T15:05:13.351Z,25.42
2022-08-17T15:07:40.848Z,25.36
2022-08-17T15:10:08.930Z,25.87
2022-08-17T15:12:35.576Z,26.22
2022-08-17T15:15:04.423Z,26.08
2022-08-17T15:17:44.538Z,25.84
2022-08-17T15:20:17.836Z,25.86
2022-08-17T15:22:45.330Z,25.98
2022-08-17T15:25:11.954Z,26.25
2022-08-17T15:27:38.653Z,25.85
2022-08-17T15:30:07.234Z,26.11
2022-08-17T15:32:35.132Z,26.50
2022-08-17T15:35:03.979Z,26.44
2022-08-17T15:37:32.076Z,25.59
2022-08-17T15:40:00.796Z,24.85
2022-08-17T15:42:27.820Z,25.26
2022-08-17T15:44:57.263Z,25.53
2022-08-17T15:47:24.419Z,25.81
2022-08-17T15:49:50.936Z,25.87
2022-08-17T15:52:27.336Z,25.23
2022-08-17T15:54:55.077Z,25.44
2022-08-17T15:57:21.765Z,26.04
2022-08-17T15:59:50.745Z,25.97
2022-08-17T16:03:15.925Z,24.76
2022-08-17T16:05:10.405Z,25.69
2022-08-17T16:07:37.060Z,25.39
2022-08-17T16:10:04.696Z,25.65
2022-08-17T16:12:31.114Z,25.51
2022-08-17T16:14:57.519Z,25.28
2022-08-17T16:17:38.718Z,25.55
2022-08-17T16:20:07.956Z,25.75
2022-08-17T16:22:37.497Z,25.59
2022-08-17T16:25:08.971Z,25.61
2022-08-17T16:27:35.416Z,25.78
2022-08-17T16:30:02.028Z,25.95
2022-08-17T16:32:31.854Z,26.00
2022-08-17T16:35:05.424Z,26.27
2022-08-17T16:37:34.250Z,26.44
2022-08-17T16:40:01.511Z,26.42
2022-08-17T16:42:29.335Z,26.76
2022-08-17T16:44:57.574Z,26.61
2022-08-17T16:47:23.978Z,27.46
2022-08-17T16:49:50.445Z,27.87
2022-08-17T16:52:32.826Z,28.42
2022-08-17T16:55:00.438Z,28.24
2022-08-17T16:57:27.380Z,28.37
2022-08-17T16:59:53.908Z,28.69
2022-08-17T17:02:27.731Z,29.06
2022-08-17T17:05:05.059Z,29.35
2022-08-17T17:07:40.262Z,29.64
2022-08-17T17:10:19.925Z,29.91
2022-08-17T17:13:01.304Z,30.40
2022-08-17T17:15:33.669Z,30.10
2022-08-17T17:18:07.185Z,30.49
2022-08-17T17:20:39.694Z,30.29
2022-08-17T17:23:27.835Z,31.10
2022-08-17T17:25:54.714Z,31.28
2022-08-17T17:28:30.112Z,31.81
2022-08-17T17:31:02.428Z,31.82
2022-08-17T17:33:37.275Z,32.30
2022-08-17T17:36:08.101Z,32.11
2022-08-17T17:38:39.292Z,32.23
2022-08-17T17:41:10.731Z,32.73
2022-08-17T17:43:39.994Z,32.34
2022-08-17T17:46:27.192Z,32.55
2022-08-17T17:48:55.668Z,33.36
2022-08-17T17:51:54.734Z,33.64
2022-08-17T17:54:21.457Z,33.25
2022-08-17T17:57:02.031Z,34.41
2022-08-17T17:59:44.042Z,34.69
2022-08-17T18:02:33.778Z,35.04
2022-08-17T18:05:06.417Z,35.12
2022-08-17T18:07:39.280Z,35.88
2022-08-17T18:10:31.660Z,35.71
2022-08-17T18:12:58.164Z,35.63
2022-08-17T18:15:34.809Z,36.59
2022-08-17T18:18:02.510Z,36.83
2022-08-17T18:20:40.922Z,37.93
2022-08-17T18:23:15.259Z,38.33
2022-08-17T18:25:48.953Z,38.15
2022-08-17T18:28:22.467Z,38.36
2022-08-17T18:31:09.814Z,38.41
2022-08-17T18:33:37.431Z,38.72
2022-08-17T18:36:04.315Z,39.02
2022-08-17T18:38:35.653Z,39.14
2022-08-17T18:41:23.601Z,39.77
2022-08-17T18:44:01.420Z,40.23
2022-08-17T18:46:30.207Z,40.79
2022-08-17T18:48:59.981Z,41.36
2022-08-17T18:51:41.397Z,41.42
2022-08-17T18:54:12.087Z,41.90
2022-08-17T18:56:41.465Z,41.83
2022-08-17T18:59:12.676Z,41.95
2022-08-17T19:02:04.356Z,42.36
2022-08-17T19:04:39.763Z,41.74
2022-08-17T19:07:11.290Z,42.13
2022-08-17T19:09:44.057Z,42.44
2022-08-17T19:12:14.300Z,42.76
2022-08-17T19:14:41.519Z,42.73
2022-08-17T19:17:16.482Z,43.40
2022-08-17T19:19:56.249Z,43.79
2022-08-17T19:22:41.782Z,43.78
2022-08-17T19:25:16.007Z,43.93
2022-08-17T19:27:49.952Z,44.29
2022-08-17T19:30:16.856Z,44.64
2022-08-17T19:32:43.288Z,45.31
2022-08-17T19:35:16.584Z,45.21
2022-08-17T19:38:05.542Z,46.22
2022-08-17T19:40:53.775Z,45.88
2022-08-17T19:43:30.686Z,46.66
2022-08-17T19:46:07.134Z,47.27
2022-08-17T19:48:52.527Z,47.25
2022-08-17T19:51:31.043Z,47.46
2022-08-17T19:54:15.046Z,47.29
2022-08-17T19:56:54.499Z,47.72
2022-08-17T19:59:21.166Z,48.47
2022-08-17T20:01:50.122Z,48.77
2022-08-17T20:04:32.421Z,48.75
2022-08-17T20:07:05.866Z,48.27
2022-08-17T20:09:37.748Z,48.66
2022-08-17T20:12:13.255Z,48.47
2022-08-17T20:14:53.637Z,48.94
2022-08-17T20:17:23.559Z,48.58
2022-08-17T20:19:51.929Z,49.13
2022-08-17T20:22:22.740Z,49.57
2022-08-17T20:25:06.371Z,51.03
2022-08-17T20:27:47.861Z,51.38
2022-08-17T20:30:35.170Z,51.03
2022-08-17T20:33:02.594Z,51.60
2022-08-17T20:35:30.693Z,51.50
2022-08-17T20:37:57.402Z,52.07
2022-08-17T20:40:26.149Z,53.20
2022-08-17T20:42:52.639Z,52.16
2022-08-17T20:45:22.035Z,52.33
2022-08-17T20:48:15.277Z,52.59
2022-08-17T20:50:39.700Z,53.12
2022-08-17T20:53:08.948Z,54.04
2022-08-17T20:55:51.803Z,54.12
2022-08-17T20:58:30.642Z,54.42
2022-08-17T21:00:57.646Z,53.98
2022-08-17T21:03:24.257Z,53.92
2022-08-17T21:05:57.384Z,53.89
2022-08-17T21:08:32.378Z,53.47
2022-08-17T21:11:00.065Z,53.40
2022-08-17T21:13:48.590Z,53.44
2022-08-17T21:16:28.115Z,53.61
2022-08-17T21:19:22.215Z,53.84
2022-08-17T21:22:08.053Z,54.35
2022-08-17T21:24:40.531Z,54.88
2022-08-17T21:27:27.152Z,54.66
2022-08-17T21:30:06.662Z,55.76
2022-08-17T21:32:37.939Z,55.48
2022-08-17T21:35:06.806Z,56.49
2022-08-17T21:37:39.184Z,57.88
2022-08-17T21:40:18.269Z,57.94
2022-08-17T21:42:47.723Z,57.78
2022-08-17T21:45:22.546Z,58.40
2022-08-17T21:47:50.253Z,59.16
2022-08-17T21:50:25.010Z,59.71
2022-08-17T21:52:54.542Z,60.39
2022-08-17T21:55:28.470Z,61.15
2022-08-17T21:58:15.134Z,60.39
2022-08-17T22:00:41.929Z,60.92
2022-08-17T22:03:21.160Z,60.93
2022-08-17T22:05:50.323Z,60.37
2022-08-17T22:08:21.868Z,60.21
2022-08-17T22:10:51.215Z,59.77
2022-08-17T22:13:17.897Z,59.58
2022-08-17T22:15:45.658Z,59.63
2022-08-17T22:18:19.508Z,59.49
2022-08-17T22:20:50.487Z,59.25
2022-08-17T22:23:46.866Z,59.12
2022-08-17T22:26:14.452Z,59.39
2022-08-17T22:28:44.322Z,59.71
2022-08-17T22:31:14.436Z,59.07
2022-08-17T22:33:46.384Z,59.26
2022-08-17T22:36:12.924Z,59.39
2022-08-17T22:38:40.577Z,59.09
2022-08-17T22:41:22.613Z,58.89
2022-08-17T22:43:50.113Z,59.02
2022-08-17T22:46:20.772Z,59.26
2022-08-17T22:48:52.450Z,59.36
2022-08-17T22:51:20.787Z,59.75
2022-08-17T22:54:07.717Z,59.75
2022-08-17T22:56:53.430Z,60.01
2022-08-17T22:59:34.323Z,60.79
2022-08-17T23:02:12.574Z,60.97
2022-08-17T23:04:40.490Z,61.13
2022-08-17T23:07:07.085Z,61.27
2022-08-17T23:09:34.027Z,61.43
2022-08-17T23:12:00.380Z,61.97
2022-08-17T23:14:31.570Z,61.80
2022-08-17T23:16:59.304Z,61.99
2022-08-17T23:19:27.317Z,62.41
2022-08-17T23:21:56.840Z,62.50
2022-08-17T23:24:25.186Z,62.35
2022-08-17T23:26:51.660Z,62.62
2022-08-17T23:29:20.638Z,62.70
2022-08-17T23:31:47.685Z,62.99
2022-08-17T23:34:15.112Z,63.01
2022-08-17T23:36:41.619Z,63.13
2022-08-17T23:39:08.073Z,63.51
2022-08-17T23:41:36.328Z,64.24
2022-08-17T23:44:04.513Z,64.19
2022-08-17T23:46:31.059Z,64.41
2022-08-17T23:48:57.459Z,64.33
2022-08-17T23:51:25.348Z,64.07
2022-08-17T23:53:54.459Z,63.98
2022-08-17T23:56:26.586Z,63.92
2022-08-17T23:58:54.781Z,64.24
